createdAt,value
2024-04-24T00:00:21.421Z,13.74
2024-04-24T00:02:50.646Z,13.73
2024-04-24T00:05:17.441Z,13.72
2024-04-24T00:07:44.284Z,13.70
2024-04-24T00:10:11.006Z,13.67
2024-04-24T00:12:40.037Z,13.65
2024-04-24T00:15:06.781Z,13.63
2024-04-24T00:17:33.745Z,13.61
2024-04-24T00:20:00.737Z,13.57
2024-04-24T00:22:29.859Z,13.56
2024-04-24T00:24:56.673Z,13.52
2024-04-24T00:27:28.051Z,13.50
2024-04-24T00:29:57.006Z,13.50
2024-04-24T00:32:23.731Z,13.47
2024-04-24T00:34:50.490Z,13.44
2024-04-24T00:37:19.778Z,13.41
2024-04-24T00:39:49.010Z,13.41
2024-04-24T00:42:24.360Z,13.37
2024-04-24T00:44:54.125Z,13.36
2024-04-24T00:47:21.783Z,13.34
2024-04-24T00:49:49.970Z,13.32
2024-04-24T00:52:17.020Z,13.31
2024-04-24T00:54:43.991Z,13.28
2024-04-24T00:57:10.976Z,13.26
2024-04-24T00:59:37.764Z,13.25
2024-04-24T01:02:04.612Z,13.23
2024-04-24T01:04:31.423Z,13.21
2024-04-24T01:06:58.155Z,13.18
2024-04-24T01:09:24.870Z,13.17
2024-04-24T01:11:52.020Z,13.15
2024-04-24T01:14:19.041Z,13.14
2024-04-24T01:16:48.530Z,13.13
2024-04-24T01:19:44.118Z,13.11
2024-04-24T01:22:29.460Z,12.94
2024-04-24T01:25:08.112Z,12.65
2024-04-24T01:27:34.942Z,12.42
2024-04-24T01:30:01.828Z,12.25
2024-04-24T01:32:28.692Z,12.14
2024-04-24T01:34:58.179Z,12.03
2024-04-24T01:37:24.937Z,11.94
2024-04-24T01:39:51.656Z,11.89
2024-04-24T01:42:18.345Z,11.85
2024-04-24T01:44:45.053Z,11.80
2024-04-24T01:47:12.143Z,11.74
2024-04-24T01:49:41.400Z,11.72
2024-04-24T01:52:08.217Z,11.67
2024-04-24T01:54:34.954Z,11.64
2024-04-24T01:57:01.707Z,11.61
2024-04-24T01:59:28.488Z,11.56
2024-04-24T02:01:55.213Z,11.55
2024-04-24T02:04:21.995Z,11.51
2024-04-24T02:06:48.761Z,11.49
2024-04-24T02:09:15.534Z,11.45
2024-04-24T02:11:42.360Z,11.43
2024-04-24T02:14:09.232Z,11.42
2024-04-24T02:16:35.984Z,11.38
2024-04-24T02:19:02.670Z,11.37
2024-04-24T02:21:31.640Z,11.34
2024-04-24T02:24:01.695Z,11.31
2024-04-24T02:26:28.662Z,11.30
2024-04-24T02:28:55.415Z,11.28
2024-04-24T02:31:22.158Z,11.26
2024-04-24T02:33:48.888Z,11.24
2024-04-24T02:36:15.629Z,11.22
2024-04-24T02:38:42.359Z,11.20
2024-04-24T02:41:09.222Z,11.18
2024-04-24T02:43:36.016Z,11.15
2024-04-24T02:46:02.821Z,11.14
2024-04-24T02:48:29.602Z,11.12
2024-04-24T02:50:56.428Z,11.11
2024-04-24T02:53:23.212Z,11.08
2024-04-24T02:55:50.116Z,11.06
2024-04-24T02:58:16.873Z,11.05
2024-04-24T03:00:43.617Z,11.04
2024-04-24T03:05:37.063Z,11.00
2024-04-24T03:08:04.115Z,10.98
2024-04-24T03:10:30.932Z,10.96
2024-04-24T03:13:00.123Z,10.94
2024-04-24T03:15:27.207Z,10.93
2024-04-24T03:17:54.042Z,10.91
2024-04-24T03:20:21.038Z,10.90
2024-04-24T03:22:47.921Z,10.89
2024-04-24T03:25:14.678Z,10.88
2024-04-24T03:27:41.385Z,10.86
2024-04-24T03:30:08.583Z,10.85
2024-04-24T03:32:35.497Z,10.83
2024-04-24T03:35:02.424Z,10.81
2024-04-24T03:37:29.220Z,10.79
2024-04-24T03:39:55.912Z,10.78
2024-04-24T03:42:22.701Z,10.77
2024-04-24T03:44:49.519Z,10.76
2024-04-24T03:47:16.305Z,10.72
2024-04-24T03:49:43.090Z,10.72
2024-04-24T03:52:12.133Z,10.72
2024-04-24T03:54:38.830Z,10.69
2024-04-24T03:57:05.549Z,10.68
2024-04-24T03:59:32.305Z,10.66
2024-04-24T04:01:59.044Z,10.65
2024-04-24T04:04:28.029Z,10.64
2024-04-24T04:06:54.782Z,10.62
2024-04-24T04:09:21.501Z,10.62
2024-04-24T04:11:48.368Z,10.60
2024-04-24T04:14:15.158Z,10.60
2024-04-24T04:16:41.890Z,10.62
2024-04-24T04:19:08.611Z,10.67
2024-04-24T04:21:38.439Z,10.81
2024-04-24T04:24:05.291Z,10.96
2024-04-24T04:26:34.313Z,11.17
2024-04-24T04:29:01.047Z,11.42
2024-04-24T04:31:27.860Z,11.68
2024-04-24T04:33:54.621Z,11.97
2024-04-24T04:36:21.327Z,12.27
2024-04-24T04:38:48.057Z,12.53
2024-04-24T04:41:14.853Z,12.81
2024-04-24T04:43:44.654Z,13.06
2024-04-24T04:46:13.622Z,13.31
2024-04-24T04:48:40.430Z,13.52
2024-04-24T04:51:07.281Z,13.69
2024-04-24T04:53:36.588Z,13.85
2024-04-24T04:56:03.501Z,14.01
2024-04-24T04:58:32.488Z,14.15
2024-04-24T05:00:59.556Z,14.27
2024-04-24T05:03:26.454Z,14.38
2024-04-24T05:05:55.721Z,14.48
2024-04-24T05:08:22.501Z,14.57
2024-04-24T05:10:51.590Z,14.63
2024-04-24T05:13:18.611Z,14.62
2024-04-24T05:15:45.380Z,14.57
2024-04-24T05:18:14.278Z,14.53
2024-04-24T05:20:41.329Z,14.45
2024-04-24T05:23:08.165Z,14.37
2024-04-24T05:25:35.002Z,14.28
2024-04-24T05:28:20.494Z,14.17
2024-04-24T05:30:47.389Z,14.04
2024-04-24T05:33:14.172Z,13.95
2024-04-24T05:35:43.289Z,13.85
2024-04-24T05:38:10.118Z,13.76
2024-04-24T05:40:36.914Z,13.67
2024-04-24T05:43:06.474Z,13.57
2024-04-24T05:45:33.191Z,13.48
2024-04-24T05:48:01.735Z,13.40
2024-04-24T05:50:28.621Z,13.32
2024-04-24T05:52:55.477Z,13.23
2024-04-24T05:55:24.193Z,13.15
2024-04-24T05:57:50.897Z,13.09
2024-04-24T06:00:17.736Z,13.02
2024-04-24T06:02:44.518Z,12.95
2024-04-24T06:05:13.861Z,12.89
2024-04-24T06:07:42.232Z,12.83
2024-04-24T06:10:08.976Z,12.76
2024-04-24T06:12:35.754Z,12.71
2024-04-24T06:15:02.469Z,12.67
2024-04-24T06:17:29.325Z,12.62
2024-04-24T06:19:56.984Z,12.59
2024-04-24T06:22:23.836Z,12.54
2024-04-24T06:24:50.640Z,12.51
2024-04-24T06:27:17.520Z,12.47
2024-04-24T06:29:47.164Z,12.43
2024-04-24T06:32:14.103Z,12.39
2024-04-24T06:34:42.549Z,12.37
2024-04-24T06:37:09.741Z,12.34
2024-04-24T06:39:36.451Z,12.31
2024-04-24T06:42:03.252Z,12.28
2024-04-24T06:44:30.082Z,12.25
2024-04-24T06:46:56.877Z,12.24
2024-04-24T06:49:23.677Z,12.22
2024-04-24T06:51:50.469Z,12.19
2024-04-24T06:54:17.263Z,12.19
2024-04-24T06:56:44.332Z,12.18
2024-04-24T06:59:11.351Z,12.19
2024-04-24T07:01:38.419Z,12.19
2024-04-24T07:04:05.360Z,12.20
2024-04-24T07:06:32.129Z,12.51
2024-04-24T07:08:58.948Z,13.07
2024-04-24T07:11:25.730Z,13.48
2024-04-24T07:13:53.014Z,13.71
2024-04-24T07:16:19.773Z,13.84
2024-04-24T07:18:46.668Z,13.89
2024-04-24T07:21:15.959Z,13.92
2024-04-24T07:23:42.728Z,13.95
2024-04-24T07:26:09.451Z,13.93
2024-04-24T07:28:38.546Z,13.83
2024-04-24T07:31:05.374Z,13.72
2024-04-24T07:33:32.231Z,13.66
2024-04-24T07:35:59.351Z,13.66
2024-04-24T07:38:26.127Z,13.64
2024-04-24T07:40:53.001Z,13.64
2024-04-24T07:43:19.762Z,13.64
2024-04-24T07:45:46.615Z,13.64
2024-04-24T07:48:13.663Z,13.65
2024-04-24T07:50:40.722Z,13.67
2024-04-24T07:53:07.467Z,13.64
2024-04-24T07:55:34.259Z,13.64
2024-04-24T07:58:00.990Z,13.64
2024-04-24T08:00:27.718Z,13.69
2024-04-24T08:02:54.555Z,13.72
2024-04-24T08:05:21.582Z,13.70
2024-04-24T08:07:53.184Z,13.69
2024-04-24T08:10:20.029Z,13.68
2024-04-24T08:12:46.838Z,13.68
2024-04-24T08:15:13.551Z,13.67
2024-04-24T08:17:40.444Z,13.61
2024-04-24T08:20:10.234Z,13.63
2024-04-24T08:22:41.810Z,13.61
2024-04-24T08:25:08.674Z,13.62
2024-04-24T08:27:35.395Z,13.61
2024-04-24T08:30:02.257Z,13.62
2024-04-24T08:32:29.495Z,13.63
2024-04-24T08:34:56.546Z,13.67
2024-04-24T08:37:25.612Z,13.65
2024-04-24T08:39:52.318Z,13.67
2024-04-24T08:42:19.510Z,13.73
2024-04-24T08:44:46.919Z,13.78
2024-04-24T08:47:15.768Z,13.81
2024-04-24T08:49:45.505Z,13.84
2024-04-24T08:52:14.092Z,13.86
2024-04-24T08:54:45.774Z,13.85
2024-04-24T08:57:14.571Z,13.84
2024-04-24T08:59:48.147Z,13.86
2024-04-24T09:02:16.271Z,13.85
2024-04-24T09:04:48.365Z,13.86
2024-04-24T09:07:21.097Z,13.87
2024-04-24T09:09:48.302Z,13.91
2024-04-24T09:12:17.136Z,13.95
2024-04-24T09:14:46.095Z,13.94
2024-04-24T09:17:13.161Z,13.94
2024-04-24T09:19:43.589Z,13.93
2024-04-24T09:22:10.379Z,13.91
2024-04-24T09:24:37.924Z,13.89
2024-04-24T09:27:07.199Z,13.91
2024-04-24T09:29:34.123Z,13.94
2024-04-24T09:32:03.289Z,13.97
2024-04-24T09:34:30.118Z,13.97
2024-04-24T09:36:57.898Z,13.96
2024-04-24T09:39:26.000Z,13.96
2024-04-24T09:41:52.890Z,13.94
2024-04-24T09:44:24.620Z,13.96
2024-04-24T09:46:56.140Z,13.96
2024-04-24T09:49:23.330Z,13.99
2024-04-24T09:51:51.759Z,13.98
2024-04-24T09:54:19.300Z,13.97
2024-04-24T09:56:49.481Z,13.98
2024-04-24T09:59:19.591Z,14.00
2024-04-24T10:01:54.834Z,14.08
2024-04-24T10:04:28.954Z,14.23
2024-04-24T10:07:02.251Z,14.34
2024-04-24T10:09:32.866Z,14.41
2024-04-24T10:12:09.697Z,14.48
2024-04-24T10:14:43.570Z,14.53
2024-04-24T10:17:13.517Z,14.63
2024-04-24T10:19:45.386Z,14.74
2024-04-24T10:22:12.322Z,14.83
2024-04-24T10:24:39.770Z,14.85
2024-04-24T10:27:06.939Z,14.85
2024-04-24T10:29:34.814Z,14.84
2024-04-24T10:32:03.081Z,14.90
2024-04-24T10:34:31.357Z,14.97
2024-04-24T10:37:00.337Z,14.98
2024-04-24T10:39:27.571Z,14.98
2024-04-24T10:41:57.812Z,14.97
2024-04-24T10:44:24.690Z,14.95
2024-04-24T10:46:51.712Z,14.97
2024-04-24T10:49:18.506Z,14.99
2024-04-24T10:51:50.898Z,15.04
2024-04-24T10:54:17.745Z,15.08
2024-04-24T10:56:48.407Z,15.09
2024-04-24T10:59:15.539Z,15.10
2024-04-24T11:01:52.865Z,15.13
2024-04-24T11:04:24.878Z,15.16
2024-04-24T11:06:51.832Z,15.17
2024-04-24T11:09:21.310Z,15.17
2024-04-24T11:11:50.827Z,15.17
2024-04-24T11:14:20.146Z,15.21
2024-04-24T11:16:57.222Z,15.31
2024-04-24T11:19:24.431Z,15.43
2024-04-24T11:21:51.268Z,15.49
2024-04-24T11:24:29.019Z,15.58
2024-04-24T11:26:55.752Z,15.61
2024-04-24T11:29:22.523Z,15.64
2024-04-24T11:31:50.002Z,15.65
2024-04-24T11:34:17.543Z,15.64
2024-04-24T11:36:46.797Z,15.64
2024-04-24T11:39:15.664Z,15.64
2024-04-24T11:41:43.096Z,15.63
2024-04-24T11:44:10.861Z,15.65
2024-04-24T11:46:40.003Z,15.65
2024-04-24T11:49:09.784Z,15.66
2024-04-24T11:51:38.238Z,15.74
2024-04-24T11:54:05.201Z,15.83
2024-04-24T11:56:35.847Z,15.90
2024-04-24T11:59:05.121Z,15.95
2024-04-24T12:01:33.744Z,15.96
2024-04-24T12:04:01.310Z,15.97
2024-04-24T12:06:29.658Z,15.95
2024-04-24T12:09:01.409Z,15.93
2024-04-24T12:11:30.635Z,15.93
2024-04-24T12:13:58.268Z,15.93
2024-04-24T12:16:25.246Z,15.95
2024-04-24T12:18:52.246Z,15.96
2024-04-24T12:21:19.022Z,15.94
2024-04-24T12:23:45.878Z,15.95
2024-04-24T12:26:12.656Z,16.06
2024-04-24T12:28:39.399Z,16.32
2024-04-24T12:31:06.168Z,16.65
2024-04-24T12:33:33.449Z,16.87
2024-04-24T12:36:02.526Z,17.00
2024-04-24T12:38:31.643Z,17.20
2024-04-24T12:41:00.658Z,17.24
2024-04-24T12:43:27.448Z,17.15
2024-04-24T12:45:54.195Z,17.03
2024-04-24T12:48:21.050Z,16.88
2024-04-24T12:50:47.892Z,16.74
2024-04-24T12:53:15.462Z,16.62
2024-04-24T12:55:42.713Z,16.56
2024-04-24T12:58:11.812Z,16.52
2024-04-24T13:00:38.694Z,16.49
2024-04-24T13:03:05.677Z,16.49
2024-04-24T13:05:33.256Z,16.53
2024-04-24T13:08:00.149Z,16.55
2024-04-24T13:10:26.961Z,16.62
2024-04-24T13:12:56.148Z,16.76
2024-04-24T13:15:22.911Z,16.92
2024-04-24T13:17:49.778Z,17.03
2024-04-24T13:20:16.812Z,17.06
2024-04-24T13:22:43.656Z,17.03
2024-04-24T13:25:10.393Z,16.98
2024-04-24T13:27:40.113Z,16.94
2024-04-24T13:30:09.441Z,16.93
2024-04-24T13:32:37.091Z,16.91
2024-04-24T13:35:04.021Z,16.96
2024-04-24T13:37:33.096Z,17.08
2024-04-24T13:39:59.987Z,17.28
2024-04-24T13:42:26.771Z,17.49
2024-04-24T13:44:55.718Z,17.71
2024-04-24T13:47:23.164Z,18.05
2024-04-24T13:49:52.876Z,18.21
2024-04-24T13:52:19.630Z,18.22
2024-04-24T13:54:46.366Z,18.20
2024-04-24T13:57:13.162Z,18.25
2024-04-24T13:59:39.959Z,18.36
2024-04-24T14:02:10.047Z,18.55
2024-04-24T14:04:36.830Z,18.83
2024-04-24T14:07:03.618Z,19.15
2024-04-24T14:09:30.342Z,19.60
2024-04-24T14:11:57.155Z,20.10
2024-04-24T14:14:24.464Z,20.52
2024-04-24T14:16:51.361Z,20.85
2024-04-24T14:19:20.868Z,21.20
2024-04-24T14:21:47.651Z,21.50
2024-04-24T14:24:15.088Z,21.73
2024-04-24T14:26:41.884Z,21.65
2024-04-24T14:29:14.184Z,21.55
2024-04-24T14:31:44.428Z,21.32
2024-04-24T14:34:11.684Z,21.04
2024-04-24T14:36:38.502Z,20.77
2024-04-24T14:39:05.296Z,20.53
2024-04-24T14:41:32.016Z,20.33
2024-04-24T14:43:58.978Z,20.20
2024-04-24T14:46:25.852Z,20.10
2024-04-24T14:48:52.736Z,19.98
2024-04-24T14:51:19.587Z,20.03
2024-04-24T14:53:47.035Z,20.23
2024-04-24T14:56:16.482Z,20.19
2024-04-24T14:58:43.240Z,20.03
2024-04-24T15:01:10.249Z,19.84
2024-04-24T15:03:37.538Z,19.69
2024-04-24T15:06:04.951Z,19.66
2024-04-24T15:08:31.917Z,19.56
2024-04-24T15:10:59.044Z,19.49
2024-04-24T15:13:25.894Z,19.49
2024-04-24T15:15:52.765Z,19.58
2024-04-24T15:18:19.670Z,19.57
2024-04-24T15:20:46.634Z,19.52
2024-04-24T15:23:14.825Z,19.50
2024-04-24T15:25:43.850Z,19.46
2024-04-24T15:28:10.684Z,19.41
2024-04-24T15:30:37.460Z,19.33
2024-04-24T15:33:06.821Z,19.23
2024-04-24T15:35:33.799Z,19.16
2024-04-24T15:38:00.714Z,19.17
2024-04-24T15:40:27.585Z,19.28
2024-04-24T15:42:54.317Z,19.50
2024-04-24T15:45:23.293Z,19.65
2024-04-24T15:47:50.265Z,19.74
2024-04-24T15:50:17.179Z,19.70
2024-04-24T15:52:46.542Z,19.68
2024-04-24T15:55:13.990Z,19.66
2024-04-24T15:57:42.655Z,19.72
2024-04-24T16:00:10.254Z,19.87
2024-04-24T16:02:37.155Z,19.94
2024-04-24T16:05:04.317Z,19.81
2024-04-24T16:07:31.100Z,19.66
2024-04-24T16:09:59.599Z,19.53
2024-04-24T16:12:29.898Z,19.44
2024-04-24T16:14:56.778Z,19.32
2024-04-24T16:17:23.629Z,19.24
2024-04-24T16:19:52.811Z,19.18
2024-04-24T16:22:19.618Z,19.14
2024-04-24T16:24:46.416Z,19.23
2024-04-24T16:27:13.387Z,19.33
2024-04-24T16:29:40.708Z,19.28
2024-04-24T16:32:07.763Z,19.30
2024-04-24T16:34:34.721Z,19.50
2024-04-24T16:37:03.809Z,19.49
2024-04-24T16:39:30.587Z,19.40
2024-04-24T16:41:57.345Z,19.58
2024-04-24T16:44:24.203Z,19.75
2024-04-24T16:46:51.035Z,19.70
2024-04-24T16:49:20.053Z,19.67
2024-04-24T16:51:46.807Z,19.83
2024-04-24T16:54:13.536Z,19.99
2024-04-24T16:56:40.314Z,20.08
2024-04-24T16:59:07.158Z,20.02
2024-04-24T17:01:38.987Z,19.91
2024-04-24T17:04:05.862Z,19.73
2024-04-24T17:06:32.715Z,19.58
2024-04-24T17:08:59.599Z,19.50
2024-04-24T17:11:26.777Z,19.41
2024-04-24T17:13:54.571Z,19.37
2024-04-24T17:16:21.278Z,19.32
2024-04-24T17:18:50.415Z,19.39
2024-04-24T17:21:21.955Z,19.47
2024-04-24T17:23:48.755Z,19.61
2024-04-24T17:26:26.875Z,19.55
2024-04-24T17:29:02.421Z,19.41
2024-04-24T17:31:29.257Z,19.37
2024-04-24T17:34:00.544Z,19.33
2024-04-24T17:36:29.426Z,19.19
2024-04-24T17:38:56.226Z,19.15
2024-04-24T17:41:24.623Z,19.08
2024-04-24T17:43:51.471Z,19.00
2024-04-24T17:46:20.665Z,18.89
2024-04-24T17:48:47.502Z,18.80
2024-04-24T17:51:14.304Z,18.70
2024-04-24T17:53:44.070Z,18.62
2024-04-24T17:56:10.950Z,18.54
2024-04-24T17:58:37.708Z,18.42
2024-04-24T18:01:04.680Z,18.33
2024-04-24T18:03:31.816Z,18.24
2024-04-24T18:05:58.696Z,18.13
2024-04-24T18:08:25.460Z,18.06
2024-04-24T18:10:52.806Z,18.00
2024-04-24T18:13:19.588Z,17.94
2024-04-24T18:15:47.575Z,17.89
2024-04-24T18:18:14.971Z,17.81
2024-04-24T18:20:42.414Z,17.77
2024-04-24T18:23:14.727Z,17.74
2024-04-24T18:25:42.705Z,17.71
2024-04-24T18:28:13.319Z,17.66
2024-04-24T18:30:40.171Z,17.63
2024-04-24T18:33:10.107Z,17.59
2024-04-24T18:35:36.988Z,17.55
2024-04-24T18:38:03.932Z,17.49
2024-04-24T18:40:31.552Z,17.46
2024-04-24T18:42:58.556Z,17.41
2024-04-24T18:45:25.300Z,17.35
2024-04-24T18:47:52.318Z,17.30
2024-04-24T18:50:19.958Z,17.26
2024-04-24T18:52:46.958Z,17.20
2024-04-24T18:55:13.727Z,17.14
2024-04-24T18:57:44.072Z,17.09
2024-04-24T19:00:16.566Z,17.06
2024-04-24T19:02:46.463Z,17.00
2024-04-24T19:05:16.965Z,16.95
2024-04-24T19:07:43.895Z,16.88
2024-04-24T19:10:10.844Z,16.79
2024-04-24T19:12:37.738Z,16.74
2024-04-24T19:15:04.874Z,16.71
2024-04-24T19:17:31.819Z,16.67
2024-04-24T19:19:58.682Z,16.65
2024-04-24T19:22:25.531Z,16.61
2024-04-24T19:24:52.366Z,16.58
2024-04-24T19:27:26.643Z,16.55
2024-04-24T19:30:01.927Z,16.52
2024-04-24T19:32:31.311Z,16.47
2024-04-24T19:34:59.024Z,16.44
2024-04-24T19:37:30.266Z,16.42
2024-04-24T19:39:57.011Z,16.39
2024-04-24T19:42:23.855Z,16.34
2024-04-24T19:44:50.684Z,16.31
2024-04-24T19:47:17.468Z,16.27
2024-04-24T19:49:45.698Z,16.24
2024-04-24T19:52:12.513Z,16.20
2024-04-24T19:54:39.340Z,16.17
2024-04-24T19:57:08.649Z,16.14
2024-04-24T19:59:35.537Z,16.10
2024-04-24T20:02:02.366Z,16.06
2024-04-24T20:04:29.780Z,16.03
2024-04-24T20:06:59.394Z,16.00
2024-04-24T20:09:26.313Z,15.97
2024-04-24T20:11:53.424Z,15.93
2024-04-24T20:14:20.416Z,15.90
2024-04-24T20:16:47.192Z,15.86
2024-04-24T20:19:17.586Z,15.84
2024-04-24T20:21:45.922Z,15.80
2024-04-24T20:24:13.793Z,15.77
2024-04-24T20:26:40.853Z,15.75
2024-04-24T20:29:07.754Z,15.71
2024-04-24T20:31:35.474Z,15.69
2024-04-24T20:34:04.490Z,15.66
2024-04-24T20:36:34.013Z,15.63
2024-04-24T20:39:01.765Z,15.60
2024-04-24T20:41:30.691Z,15.56
2024-04-24T20:43:57.554Z,15.54
2024-04-24T20:46:24.277Z,15.51
2024-04-24T20:48:53.259Z,15.48
2024-04-24T20:51:20.458Z,15.45
2024-04-24T20:53:47.432Z,15.44
2024-04-24T20:56:17.742Z,15.42
2024-04-24T20:58:44.674Z,15.40
2024-04-24T21:01:11.503Z,15.39
2024-04-24T21:03:39.491Z,15.37
2024-04-24T21:06:07.628Z,15.35
2024-04-24T21:08:38.610Z,15.33
2024-04-24T21:11:05.999Z,15.32
2024-04-24T21:13:33.168Z,15.29
2024-04-24T21:15:59.984Z,15.27
2024-04-24T21:18:26.941Z,15.26
2024-04-24T21:20:57.890Z,15.24
2024-04-24T21:23:24.696Z,15.21
2024-04-24T21:25:51.667Z,15.20
2024-04-24T21:28:20.747Z,15.16
2024-04-24T21:30:49.542Z,15.14
2024-04-24T21:33:16.696Z,15.13
2024-04-24T21:35:44.444Z,15.12
2024-04-24T21:38:11.312Z,15.11
2024-04-24T21:40:38.067Z,15.09
2024-04-24T21:43:06.141Z,15.07
2024-04-24T21:45:32.952Z,15.06
2024-04-24T21:47:59.808Z,15.03
2024-04-24T21:50:26.568Z,15.00
2024-04-24T21:52:53.443Z,15.00
2024-04-24T21:55:20.159Z,14.98
2024-04-24T21:57:46.867Z,14.95
2024-04-24T22:00:13.839Z,14.94
2024-04-24T22:02:40.717Z,14.92
2024-04-24T22:05:07.693Z,14.90
2024-04-24T22:07:34.539Z,14.88
2024-04-24T22:10:01.278Z,14.84
2024-04-24T22:12:28.155Z,14.77
2024-04-24T22:14:55.410Z,14.71
2024-04-24T22:17:27.650Z,14.66
2024-04-24T22:19:55.924Z,14.64
2024-04-24T22:22:23.671Z,14.60
2024-04-24T22:24:51.424Z,14.56
2024-04-24T22:27:18.192Z,14.53
2024-04-24T22:29:47.476Z,14.49
2024-04-24T22:32:14.369Z,14.46
2024-04-24T22:34:41.137Z,14.43
2024-04-24T22:37:08.623Z,14.40
2024-04-24T22:39:35.895Z,14.38
2024-04-24T22:42:02.683Z,14.35
2024-04-24T22:44:29.606Z,14.33
2024-04-24T22:46:56.473Z,14.31
2024-04-24T22:49:23.322Z,14.28
2024-04-24T22:51:50.125Z,14.26
2024-04-24T22:54:16.895Z,14.23
2024-04-24T22:56:43.724Z,14.20
2024-04-24T22:59:10.869Z,14.16
2024-04-24T23:01:40.306Z,14.14
2024-04-24T23:04:07.223Z,14.11
2024-04-24T23:06:34.436Z,14.08
2024-04-24T23:09:01.194Z,14.06
2024-04-24T23:11:28.036Z,14.04
2024-04-24T23:13:54.840Z,14.02
2024-04-24T23:16:21.574Z,14.00
2024-04-24T23:18:48.359Z,13.97
2024-04-24T23:21:15.270Z,13.98
2024-04-24T23:23:42.174Z,14.03
2024-04-24T23:26:09.016Z,14.15
2024-04-24T23:28:38.602Z,14.31
2024-04-24T23:31:05.422Z,14.47
2024-04-24T23:33:32.266Z,14.64
2024-04-24T23:36:05.489Z,14.77
2024-04-24T23:38:33.410Z,14.90
2024-04-24T23:41:04.425Z,15.03
2024-04-24T23:43:31.262Z,15.24
2024-04-24T23:45:58.107Z,15.43
2024-04-24T23:48:24.901Z,15.49
2024-04-24T23:50:52.079Z,15.55
2024-04-24T23:53:18.956Z,15.59
2024-04-24T23:55:46.296Z,15.58
2024-04-24T23:58:13.152Z,15.54
